createdAt,value
2022-09-04T00:03:31.963Z,3.50
2022-09-04T00:09:45.162Z,3.90
2022-09-04T00:15:54.091Z,3.80
2022-09-04T00:21:55.840Z,4.10
2022-09-04T00:28:09.351Z,4.05
2022-09-04T00:34:25.092Z,4.00
2022-09-04T00:40:31.359Z,4.20
2022-09-04T00:46:52.180Z,4.23
2022-09-04T00:53:16.679Z,3.75
2022-09-04T00:59:21.850Z,4.07
2022-09-04T01:05:40.480Z,4.00
2022-09-04T01:11:49.239Z,4.00
2022-09-04T01:18:00.077Z,4.13
2022-09-04T01:24:07.681Z,4.10
2022-09-04T01:30:14.647Z,4.05
2022-09-04T01:36:22.654Z,4.27
2022-09-04T01:42:30.723Z,4.10
2022-09-04T01:48:42.574Z,4.40
2022-09-04T01:54:44.144Z,4.20
2022-09-04T02:00:51.121Z,4.25
2022-09-04T02:07:00.848Z,4.17
2022-09-04T02:13:22.374Z,4.72
2022-09-04T02:19:42.312Z,4.50
2022-09-04T02:25:48.036Z,4.22
2022-09-04T02:32:09.799Z,4.55
2022-09-04T02:38:14.247Z,4.40
2022-09-04T02:44:18.637Z,4.07
2022-09-04T02:50:32.879Z,4.20
2022-09-04T02:56:39.927Z,4.20
2022-09-04T03:02:45.143Z,4.07
2022-09-04T03:08:55.327Z,4.77
2022-09-04T03:15:02.732Z,4.25
2022-09-04T03:21:12.375Z,4.47
2022-09-04T03:27:15.127Z,4.68
2022-09-04T03:33:21.821Z,4.30
2022-09-04T03:39:33.579Z,4.70
2022-09-04T03:45:42.614Z,4.40
2022-09-04T03:51:56.225Z,4.67
2022-09-04T03:58:07.644Z,4.72
2022-09-04T04:04:21.084Z,4.78
2022-09-04T04:10:22.697Z,4.80
2022-09-04T04:16:40.617Z,5.10
2022-09-04T04:22:54.210Z,4.80
2022-09-04T04:29:26.773Z,4.95
2022-09-04T04:35:38.141Z,5.22
2022-09-04T04:42:04.489Z,5.90
2022-09-04T04:48:24.713Z,5.53
2022-09-04T04:54:36.219Z,5.80
2022-09-04T05:00:43.393Z,5.45
2022-09-04T05:06:47.854Z,5.22
2022-09-04T05:12:54.877Z,5.50
2022-09-04T05:19:15.369Z,5.43
2022-09-04T05:25:24.377Z,5.57
2022-09-04T05:31:40.141Z,5.60
2022-09-04T05:38:00.477Z,5.50
2022-09-04T05:44:16.323Z,5.53
2022-09-04T05:50:25.375Z,6.05
2022-09-04T05:56:39.629Z,6.00
2022-09-04T06:03:00.126Z,5.85
2022-09-04T06:09:20.319Z,6.13
2022-09-04T06:15:27.230Z,5.97
2022-09-04T06:21:40.862Z,6.55
2022-09-04T06:28:00.855Z,6.77
2022-09-04T06:34:22.451Z,6.07
2022-09-04T06:40:23.971Z,6.30
2022-09-04T06:46:34.151Z,6.40
2022-09-04T06:52:38.137Z,6.75
2022-09-04T06:58:49.138Z,6.67
2022-09-04T07:04:53.623Z,5.90
2022-09-04T07:11:01.071Z,6.05
2022-09-04T07:17:14.664Z,6.77
2022-09-04T07:23:20.906Z,6.20
2022-09-04T07:29:31.656Z,6.87
2022-09-04T07:35:38.191Z,6.05
2022-09-04T07:41:39.666Z,6.18
2022-09-04T07:47:46.951Z,6.47
2022-09-04T07:54:22.612Z,6.00
2022-09-04T08:00:25.498Z,6.17
2022-09-04T08:06:48.578Z,6.03
2022-09-04T08:13:23.154Z,6.03
2022-09-04T08:19:37.224Z,5.97
2022-09-04T08:25:55.447Z,5.75
2022-09-04T08:47:38.133Z,5.28
2022-09-04T08:53:41.918Z,5.30
2022-09-04T09:00:04.386Z,5.45
2022-09-04T09:06:12.273Z,5.00
2022-09-04T09:12:40.786Z,5.18
2022-09-04T09:19:02.918Z,5.28
2022-09-04T09:25:07.174Z,5.37
2022-09-04T09:31:27.357Z,5.28
2022-09-04T09:37:28.816Z,5.60
2022-09-04T09:43:56.564Z,5.43
2022-09-04T09:50:06.081Z,5.97
2022-09-04T09:56:25.711Z,6.33
2022-09-04T10:02:47.067Z,6.05
2022-09-04T10:08:56.697Z,5.70
2022-09-04T10:15:27.512Z,5.10
2022-09-04T10:21:48.017Z,4.50
2022-09-04T10:28:08.368Z,4.73
2022-09-04T10:34:30.434Z,4.00
2022-09-04T10:40:51.700Z,4.13
2022-09-04T10:47:12.160Z,4.15
2022-09-04T10:53:22.156Z,4.30
2022-09-04T10:59:42.306Z,4.33
2022-09-04T11:05:46.502Z,5.03
2022-09-04T11:11:47.940Z,4.90
2022-09-04T11:18:16.619Z,4.50
2022-09-04T11:24:33.461Z,4.40
2022-09-04T11:30:48.004Z,4.03
2022-09-04T11:37:08.791Z,4.40
2022-09-04T11:43:30.196Z,4.27
2022-09-04T11:49:39.857Z,4.22
2022-09-04T11:56:04.408Z,4.38
2022-09-04T12:02:28.793Z,5.43
2022-09-04T12:08:52.920Z,6.93
2022-09-04T12:15:07.575Z,4.20
2022-09-04T12:21:52.959Z,4.28
2022-09-04T12:27:59.856Z,4.57
2022-09-04T12:34:13.925Z,4.13
2022-09-04T12:40:24.784Z,5.15
2022-09-04T12:46:48.965Z,4.40
2022-09-04T12:52:56.043Z,4.72
2022-09-04T12:59:17.982Z,5.20
2022-09-04T13:05:31.798Z,5.20
2022-09-04T13:11:44.275Z,4.90
2022-09-04T13:17:58.201Z,4.90
2022-09-04T13:24:11.623Z,4.83
2022-09-04T13:30:25.406Z,4.90
2022-09-04T13:36:49.471Z,4.70
2022-09-04T13:42:57.107Z,4.47
2022-09-04T13:49:02.594Z,4.85
2022-09-04T13:55:04.177Z,5.97
2022-09-04T14:01:11.764Z,4.30
2022-09-04T14:07:18.857Z,4.28
2022-09-04T14:13:38.006Z,4.00
2022-09-04T14:19:52.734Z,3.92
2022-09-04T14:26:03.614Z,4.50
2022-09-04T14:32:14.143Z,4.03
2022-09-04T14:38:21.863Z,3.90
2022-09-04T14:44:35.697Z,4.07
2022-09-04T14:50:45.610Z,3.85
2022-09-04T14:56:57.170Z,4.30
2022-09-04T15:03:08.676Z,3.90
2022-09-04T15:09:28.809Z,4.32
2022-09-04T15:15:37.239Z,3.90
2022-09-04T15:21:43.287Z,4.72
2022-09-04T15:27:50.543Z,5.50
2022-09-04T15:33:58.995Z,4.93
2022-09-04T15:40:04.305Z,4.43
2022-09-04T15:46:09.401Z,3.93
2022-09-04T15:52:29.777Z,3.90
2022-09-04T15:58:41.135Z,4.40
2022-09-04T16:04:49.813Z,4.00
2022-09-04T16:11:06.559Z,3.90
2022-09-04T16:17:12.243Z,4.30
2022-09-04T16:23:18.621Z,4.07
2022-09-04T16:29:27.302Z,4.07
2022-09-04T16:35:33.095Z,4.07
2022-09-04T16:41:39.824Z,5.15
2022-09-04T16:47:45.562Z,5.10
2022-09-04T16:53:51.571Z,4.43
2022-09-04T17:00:13.660Z,4.30
2022-09-04T17:06:22.859Z,4.10
2022-09-04T17:12:30.173Z,4.28
2022-09-04T17:18:32.180Z,4.40
2022-09-04T17:29:17.546Z,4.60
2022-09-04T17:31:13.529Z,3.90
2022-09-04T17:40:49.396Z,4.33
2022-09-04T17:44:02.338Z,4.28
2022-09-04T17:50:10.987Z,4.60
2022-09-04T17:56:30.200Z,4.32
2022-09-04T18:02:42.587Z,4.30
2022-09-04T18:08:55.632Z,4.10
2022-09-04T18:15:32.525Z,4.40
2022-09-04T18:21:32.017Z,4.27
2022-09-04T18:27:47.206Z,4.38
2022-09-04T18:37:21.166Z,4.55
2022-09-04T18:43:23.597Z,4.30
2022-09-04T18:50:32.961Z,4.35
2022-09-04T18:53:49.732Z,4.50
2022-09-04T19:00:01.821Z,4.20
2022-09-04T19:06:12.924Z,4.20
2022-09-04T19:12:18.182Z,4.20
2022-09-04T19:18:23.393Z,4.22
2022-09-04T19:24:34.505Z,4.10
2022-09-04T19:30:59.616Z,4.10
2022-09-04T19:37:31.484Z,4.20
2022-09-04T19:46:18.372Z,3.87
2022-09-04T19:53:17.753Z,3.97
2022-09-04T19:57:17.491Z,3.70
2022-09-04T20:03:00.336Z,4.00
2022-09-04T20:09:11.272Z,3.47
2022-09-04T20:15:18.863Z,3.93
2022-09-04T20:21:26.084Z,3.65
2022-09-04T20:27:50.758Z,3.40
2022-09-04T20:33:54.311Z,3.80
2022-09-04T20:40:01.330Z,3.70
2022-09-04T20:51:46.656Z,3.83
2022-09-04T20:52:50.301Z,3.83
2022-09-04T21:03:13.100Z,3.50
2022-09-04T21:05:44.133Z,3.55
2022-09-04T21:11:51.752Z,4.00
2022-09-04T21:18:08.525Z,3.60
2022-09-04T21:24:22.295Z,3.70
2022-09-04T21:30:35.963Z,3.90
2022-09-04T21:36:38.059Z,4.10
2022-09-04T21:42:39.489Z,3.95
2022-09-04T21:49:00.932Z,3.97
2022-09-04T21:59:32.752Z,4.00
2022-09-04T22:02:39.687Z,4.03
2022-09-04T22:13:26.050Z,4.15
2022-09-04T22:14:59.183Z,4.60
2022-09-04T22:21:19.320Z,4.27
2022-09-04T22:27:58.657Z,4.80
2022-09-04T22:34:16.853Z,4.70
2022-09-04T22:40:33.195Z,4.43
2022-09-04T22:47:26.145Z,4.75
2022-09-04T22:53:30.324Z,5.10
2022-09-04T22:59:39.568Z,4.65
2022-09-04T23:05:44.044Z,4.80
2022-09-04T23:14:02.710Z,4.97
2022-09-04T23:23:48.906Z,5.00
2022-09-04T23:26:54.236Z,4.90
2022-09-04T23:31:46.245Z,5.00
2022-09-04T23:37:53.193Z,5.17
2022-09-04T23:44:15.304Z,5.05
2022-09-04T23:50:45.732Z,5.20
2022-09-04T23:56:47.828Z,5.13
